map of MBD home
MBD - Airport
Location
City:  Mahikeng, North West, South Africa
Near (Alt.):Mmabatho
Name:Mahikeng International Airport
ICAO:FAMM
IATA:MBD

Details
Type:Airport (Aerodrome, Airfield)
Use:Public/Civil, International (customs port of entry)
Latitude:2548'27"S (-25.807446)
Longitude:2532'40"E (25.544469)
Elevation:4181 ft (1274 m)
Variation:17.46W (WMM2015 magnetic declination)
-0.07 annual change
Runways:1
Longest:14760 × 148 ft (4499 × 45 m), paved

Time
Time Zone:UTC+2
Local Time:

Weather
METAR:FAMM 201500Z 35004KT 9999 FEW040TCU SCT040 31/09 Q1019 NOSIG

Related Locations
Nearby:
Farthest:LUP: 12079 mi / 19439 km
Kalaupapa, Molokai, HI, US

Find:

   beyond  
but within

Other Information
Maps:
NOTAMs:
Links:
Sources:

  
  • flag of South Africa
  • flag of North West
  

Airport Diagram

Airport diagram for MBD

Airport diagram PDF from South African CAA

Sectional Chart

Flight Planning
at skyvector.com

Satellite Image

Google Maps Satellite view

 

Copyright © 2004-2019 Karl L. Swartz. All rights reserved.
The Great Circle Mapper name and logo are trademarks of the Great Circle Mapper.
All other trademarks mentioned herein belong to their respective owners.
Please see credits for attibutions and further copyright information.

  Follow gcmap on Facebook Follow gcmap on Twitter Follow gcmap on Google+ GCmap on LinkedIn

hCard Microformat

Geo Microformat